Time;durP1;ratioP1;P1;durP2;ratioP2;P2;SDS_P1;SDS_P2;PMS_P1;PMS_P2;Temp;Humidity;BMP_temperature;BMP_pressure;BME280_temperature;BME280_humidity;BME280_pressure;Samples;Min_cycle;Max_cycle;Signal;HPM_P1;HPM_P2
2021/01/31 00:00:18;;;;;;;29.65;17.05;;;;;;;-1.78;66.34;94665.47;4922944;29;20039;-91
2021/01/31 00:02:44;;;;;;;26.88;16.38;;;;;;;-1.68;65.94;94659.13;4923109;29;20032;-91
2021/01/31 00:05:09;;;;;;;27.08;16.38;;;;;;;-1.65;66.11;94670.84;4922914;29;20030;-92
2021/01/31 00:07:35;;;;;;;25.33;16.25;;;;;;;-1.84;65.44;94643.19;4923475;29;20126;-91
2021/01/31 00:10:01;;;;;;;26.05;15.93;;;;;;;-1.64;65.21;94672.38;4923038;29;20032;-91
2021/01/31 00:12:26;;;;;;;26.83;16.88;;;;;;;-1.98;66.40;94622.22;4922993;29;20039;-93
2021/01/31 00:14:52;;;;;;;24.85;15.43;;;;;;;-1.67;65.51;94657.97;4922617;29;20028;-92
2021/01/31 00:17:17;;;;;;;26.33;15.68;;;;;;;-1.63;64.83;94660.53;4922785;29;20417;-93
2021/01/31 00:19:43;;;;;;;24.73;14.00;;;;;;;-1.78;64.15;94649.50;4922558;29;20032;-93
2021/01/31 00:22:08;;;;;;;23.20;13.90;;;;;;;-2.07;65.53;94627.41;4922613;29;20028;-91
2021/01/31 00:24:34;;;;;;;24.08;14.75;;;;;;;-1.48;64.42;94727.53;4922630;29;20024;-93
2021/01/31 00:27:00;;;;;;;25.17;14.95;;;;;;;-1.28;66.74;94738.06;4924100;29;20040;-93
2021/01/31 00:29:27;;;;;;;24.58;14.07;;;;;;;-1.57;65.22;94682.84;4923294;29;20024;-92
2021/01/31 00:31:53;;;;;;;23.92;14.38;;;;;;;-1.62;64.27;94672.69;4922083;29;20063;-93
2021/01/31 00:34:20;;;;;;;24.48;13.50;;;;;;;-1.31;64.94;94737.00;4921217;29;20317;-94
2021/01/31 00:36:46;;;;;;;26.95;15.38;;;;;;;-2.00;65.17;94633.28;4922146;29;20115;-92
2021/01/31 00:39:12;;;;;;;26.40;14.95;;;;;;;-1.31;64.91;94718.34;4922108;29;20020;-92
2021/01/31 00:41:39;;;;;;;24.08;15.25;;;;;;;-1.67;65.11;94675.84;4921971;29;20024;-93
2021/01/31 00:44:05;;;;;;;28.48;15.18;;;;;;;-1.77;65.41;94661.63;4921864;29;20079;-93
2021/01/31 00:46:37;;;;;;;25.65;15.20;;;;;;;-1.67;66.02;94694.50;4921923;29;20028;-93
2021/01/31 00:49:04;;;;;;;27.88;15.43;;;;;;;-1.79;66.53;94682.59;4921931;29;20061;-91
2021/01/31 00:51:29;;;;;;;25.55;15.50;;;;;;;-1.77;67.05;94685.59;4921761;29;20027;-93
2021/01/31 00:53:55;;;;;;;25.02;14.68;;;;;;;-2.12;65.62;94633.97;4922012;29;20405;-93
2021/01/31 00:56:20;;;;;;;22.35;14.27;;;;;;;-1.58;66.52;94700.72;4922014;29;20094;-92
2021/01/31 00:58:46;;;;;;;23.98;14.35;;;;;;;-1.96;66.04;94649.94;4921583;29;20079;-93
2021/01/31 01:01:14;;;;;;;23.83;14.23;;;;;;;-2.12;66.07;94628.66;4922099;29;20024;-92
2021/01/31 01:03:40;;;;;;;22.75;14.27;;;;;;;-1.67;64.84;94697.91;4921513;29;20111;-92
2021/01/31 01:06:05;;;;;;;23.42;14.15;;;;;;;-2.05;67.38;94649.00;4921493;29;20123;-93
2021/01/31 01:08:31;;;;;;;22.40;13.75;;;;;;;-1.43;65.52;94735.00;4921528;29;20039;-94
2021/01/31 01:10:56;;;;;;;22.00;12.88;;;;;;;-2.07;64.74;94656.66;4921393;29;20036;-92
2021/01/31 01:13:22;;;;;;;23.70;13.10;;;;;;;-1.78;66.18;94702.72;4921507;29;20080;-93
2021/01/31 01:15:47;;;;;;;19.45;12.48;;;;;;;-1.99;64.17;94673.97;4921296;29;20119;-92
2021/01/31 01:18:13;;;;;;;20.85;11.90;;;;;;;-1.98;65.23;94667.47;4921490;29;20504;-92
2021/01/31 01:20:38;;;;;;;21.15;13.52;;;;;;;-2.05;65.29;94671.03;4921269;29;20024;-92
2021/01/31 01:23:04;;;;;;;21.95;13.00;;;;;;;-2.43;64.34;94620.25;4921104;29;20035;-92
2021/01/31 01:25:29;;;;;;;23.52;13.30;;;;;;;-1.99;65.10;94696.00;4921182;29;20038;-92
2021/01/31 01:27:55;;;;;;;20.73;12.55;;;;;;;-1.71;66.21;94726.50;4921120;29;20373;-92
2021/01/31 01:30:25;;;;;;;20.73;12.85;;;;;;;-1.86;65.96;94696.09;4921019;29;20119;-91
2021/01/31 01:32:50;;;;;;;22.35;13.20;;;;;;;-2.13;64.63;94635.09;4920918;29;20036;-92
2021/01/31 01:35:17;;;;;;;20.10;12.05;;;;;;;-1.74;63.24;94715.97;4921076;29;20031;-91
2021/01/31 01:37:42;;;;;;;23.10;12.38;;;;;;;-1.63;66.24;94717.22;4920904;29;20051;-92
2021/01/31 01:40:17;;;;;;;21.10;12.50;;;;;;;-1.70;66.03;94709.41;4920940;29;20112;-92
2021/01/31 01:42:42;;;;;;;21.48;12.75;;;;;;;-2.23;65.16;94644.84;4920692;29;20429;-92
2021/01/31 01:45:08;;;;;;;20.52;12.70;;;;;;;-2.34;64.68;94633.72;4920750;29;20035;-92
2021/01/31 01:47:34;;;;;;;22.45;13.20;;;;;;;-1.94;62.54;94692.09;4920708;29;20091;-92
2021/01/31 01:50:42;;;;;;;20.50;12.23;;;;;;;-1.69;65.20;94715.47;4921018;29;20039;-92
2021/01/31 01:53:09;;;;;;;21.10;11.93;;;;;;;-2.01;62.85;94702.91;4920841;29;20107;-92
2021/01/31 01:55:47;;;;;;;23.00;12.73;;;;;;;-2.28;63.00;94669.28;4920653;29;20024;-92
2021/01/31 02:01:35;;;;;;;18.75;12.18;;;;;;;-2.54;62.14;94633.78;4921752;29;20446;-92
2021/01/31 02:04:01;;;;;;;20.63;12.13;;;;;;;-1.92;63.55;94730.44;4920466;29;20516;-93
2021/01/31 02:06:29;;;;;;;20.70;13.23;;;;;;;-1.95;63.55;94712.63;4920481;29;20024;-94
2021/01/31 02:08:55;;;;;;;22.58;12.60;;;;;;;-1.97;64.73;94719.53;4920484;29;20028;-92
2021/01/31 02:11:22;;;;;;;22.92;13.32;;;;;;;-1.96;66.09;94723.69;4920356;29;20122;-93
2021/01/31 02:14:02;;;;;;;23.10;13.52;;;;;;;-2.37;65.05;94669.09;4920370;29;20020;-92
2021/01/31 02:16:36;;;;;;;20.05;13.40;;;;;;;-2.33;65.16;94667.13;4920652;29;20020;-93
2021/01/31 02:19:30;;;;;;;24.80;12.77;;;;;;;-2.56;68.25;94636.06;4920272;29;20056;-92
2021/01/31 02:22:34;;;;;;;22.65;13.45;;;;;;;-1.82;68.11;94719.94;4920290;29;20028;-92
2021/01/31 02:25:20;;;;;;;21.38;12.45;;;;;;;-2.24;66.27;94672.59;4913586;29;20040;-92
2021/01/31 02:27:48;;;;;;;17.67;11.27;;;;;;;-1.95;66.05;94725.19;4920129;29;20031;-93
2021/01/31 02:30:58;;;;;;;19.80;11.60;;;;;;;-1.92;68.56;94733.09;4920567;29;20324;-93
2021/01/31 02:33:35;;;;;;;18.35;11.77;;;;;;;-1.90;65.20;94738.00;4885111;29;20024;-91
2021/01/31 02:36:09;;;;;;;19.17;11.43;;;;;;;-2.04;65.64;94731.09;4917625;29;20048;-91
2021/01/31 02:38:57;;;;;;;18.67;11.93;;;;;;;-1.94;68.81;94738.09;4920134;29;20031;-92
2021/01/31 02:41:46;;;;;;;18.65;11.13;;;;;;;-2.29;66.50;94680.31;4914283;29;20090;-92
2021/01/31 02:44:16;;;;;;;17.23;10.68;;;;;;;-2.33;66.85;94658.41;4920159;29;20090;-92
2021/01/31 02:46:55;;;;;;;16.00;9.48;;;;;;;-2.35;64.72;94677.41;4919941;29;20031;-92
2021/01/31 02:49:30;;;;;;;16.35;10.07;;;;;;;-1.97;63.88;94730.94;4920107;29;20051;-92
2021/01/31 02:52:06;;;;;;;15.80;8.90;;;;;;;-1.96;66.60;94729.03;4920054;29;20055;-92
2021/01/31 02:54:39;;;;;;;12.80;8.63;;;;;;;-2.51;62.81;94659.53;4920041;29;20030;-94
2021/01/31 02:57:20;;;;;;;16.95;9.25;;;;;;;-2.43;62.46;94668.84;4922602;29;20063;-93
2021/01/31 02:59:57;;;;;;;16.08;9.57;;;;;;;-1.98;64.49;94739.31;4924014;29;20079;-92
2021/01/31 03:02:35;;;;;;;17.63;9.95;;;;;;;-2.70;65.91;94639.81;4923654;29;20036;-92
2021/01/31 03:05:07;;;;;;;13.02;8.35;;;;;;;-2.65;62.62;94659.84;4923705;29;20036;-93
2021/01/31 03:07:44;;;;;;;11.70;8.15;;;;;;;-2.32;64.64;94721.81;4923769;29;20428;-93
2021/01/31 03:10:17;;;;;;;13.32;8.35;;;;;;;-2.31;62.90;94718.00;4923751;29;20544;-91
2021/01/31 03:12:55;;;;;;;16.02;9.65;;;;;;;-2.74;63.93;94644.44;4923468;29;20020;-92
2021/01/31 03:15:26;;;;;;;15.88;9.70;;;;;;;-2.24;64.27;94725.81;4923551;29;20028;-92
2021/01/31 03:18:08;;;;;;;16.83;10.95;;;;;;;-2.76;65.50;94652.09;4923493;29;20115;-93
2021/01/31 03:20:44;;;;;;;15.88;10.02;;;;;;;-2.28;66.12;94719.09;4923437;29;20064;-91
2021/01/31 03:23:22;;;;;;;15.80;9.68;;;;;;;-2.03;63.48;94751.19;4923347;29;20344;-92
2021/01/31 03:25:54;;;;;;;15.43;9.45;;;;;;;-2.16;65.38;94748.44;4923386;29;20056;-92
2021/01/31 03:28:20;;;;;;;14.80;9.63;;;;;;;-2.50;63.82;94705.50;4923389;29;20024;-93
2021/01/31 03:30:47;;;;;;;14.50;9.35;;;;;;;-2.21;64.59;94751.59;4923209;29;20032;-92
2021/01/31 03:33:14;;;;;;;15.23;8.57;;;;;;;-2.06;63.75;94765.34;4922768;29;20405;-92
2021/01/31 03:35:49;;;;;;;15.15;10.20;;;;;;;-2.13;65.41;94766.25;4923477;29;20035;-92
2021/01/31 03:38:48;;;;;;;14.70;8.80;;;;;;;-2.51;63.33;94701.31;4923231;29;20028;-92
2021/01/31 03:41:19;;;;;;;16.33;9.25;;;;;;;-2.43;64.76;94714.06;4923089;29;20078;-93
2021/01/31 03:43:44;;;;;;;13.52;8.98;;;;;;;-2.08;66.03;94770.31;4922844;29;20056;-92
2021/01/31 03:46:25;;;;;;;15.15;9.77;;;;;;;-2.05;65.10;94774.06;4922753;29;20032;-93
2021/01/31 03:49:13;;;;;;;16.08;9.85;;;;;;;-2.07;62.97;94757.78;4922858;29;20039;-92
2021/01/31 03:51:39;;;;;;;14.23;9.10;;;;;;;-2.36;62.84;94737.09;4922923;29;20127;-92
2021/01/31 03:54:07;;;;;;;16.55;9.60;;;;;;;-2.03;66.12;94769.09;4922842;29;20021;-92
2021/01/31 03:57:05;;;;;;;14.32;8.63;;;;;;;-2.13;67.19;94768.16;4922727;29;20032;-93
2021/01/31 03:59:34;;;;;;;14.77;8.90;;;;;;;-2.09;63.36;94766.16;4915796;29;20079;-92
2021/01/31 04:02:01;;;;;;;14.60;8.93;;;;;;;-2.61;64.38;94699.63;4922674;29;20020;-94
2021/01/31 04:04:34;;;;;;;14.52;8.70;;;;;;;-2.05;63.84;94785.47;4922644;29;20068;-92
2021/01/31 04:07:03;;;;;;;14.68;8.63;;;;;;;-2.68;63.39;94695.97;4922598;29;20039;-92
2021/01/31 04:09:32;;;;;;;13.25;9.27;;;;;;;-2.44;63.36;94733.84;4922555;29;20028;-91
2021/01/31 04:12:03;;;;;;;15.70;8.73;;;;;;;-2.02;64.56;94794.56;4922393;29;20031;-92
2021/01/31 04:14:51;;;;;;;13.70;8.85;;;;;;;-2.08;63.39;94788.19;4922552;29;20115;-92
2021/01/31 04:17:17;;;;;;;13.65;7.88;;;;;;;-2.52;62.59;94745.78;4922485;29;20031;-92
2021/01/31 04:19:42;;;;;;;13.38;8.52;;;;;;;-2.17;62.83;94786.13;4923561;29;20020;-92
2021/01/31 04:22:08;;;;;;;14.50;9.10;;;;;;;-2.48;65.36;94748.38;4941316;29;20055;-93
2021/01/31 04:24:33;;;;;;;14.23;8.70;;;;;;;-2.78;64.90;94704.88;4941254;29;20412;-93
2021/01/31 04:26:58;;;;;;;14.98;8.90;;;;;;;-2.82;62.99;94712.22;4957169;29;20038;-92
2021/01/31 04:29:25;;;;;;;14.13;8.43;;;;;;;-2.57;63.57;94758.81;4941186;29;20040;-94
2021/01/31 04:31:50;;;;;;;13.90;9.07;;;;;;;-2.88;63.94;94707.75;4941083;29;20079;-93
2021/01/31 04:34:15;;;;;;;15.38;8.90;;;;;;;-2.90;65.34;94698.28;4941230;29;20114;-92
2021/01/31 04:36:41;;;;;;;16.10;9.50;;;;;;;-2.48;65.66;94764.31;4941038;29;20030;-92
2021/01/31 04:39:06;;;;;;;15.60;9.07;;;;;;;-2.86;65.14;94708.13;4940932;29;20063;-93
2021/01/31 04:41:38;;;;;;;12.75;8.55;;;;;;;-2.21;64.84;94812.78;4940795;29;20034;-91
2021/01/31 04:44:06;;;;;;;14.70;9.43;;;;;;;-2.74;64.93;94728.75;4941066;29;20027;-92
2021/01/31 04:46:40;;;;;;;14.45;9.00;;;;;;;-2.56;63.89;94778.91;4940790;29;20059;-89
2021/01/31 04:49:50;;;;;;;14.18;8.88;;;;;;;-2.40;64.97;94779.75;4940780;29;20027;-89
2021/01/31 04:52:57;;;;;;;15.43;9.00;;;;;;;-2.31;65.57;94799.69;4935973;29;20035;-89
2021/01/31 04:55:51;;;;;;;14.13;9.25;;;;;;;-2.17;64.99;94818.03;4921781;29;20115;-89
2021/01/31 04:58:22;;;;;;;13.80;8.95;;;;;;;-2.44;63.85;94783.63;4921668;29;20024;-89
2021/01/31 05:00:56;;;;;;;15.68;9.45;;;;;;;-2.27;66.93;94816.34;4921651;29;20028;-89
2021/01/31 05:03:24;;;;;;;17.80;10.13;;;;;;;-2.58;66.91;94765.28;4922428;29;20028;-89
2021/01/31 05:05:59;;;;;;;15.45;9.63;;;;;;;-2.24;68.65;94807.53;4921465;29;20024;-89
2021/01/31 05:08:27;;;;;;;16.55;9.50;;;;;;;-2.20;64.56;94824.91;4921286;29;20032;-88
2021/01/31 05:11:15;;;;;;;14.90;9.32;;;;;;;-2.49;66.03;94786.75;4920786;29;20086;-91
2021/01/31 05:13:48;;;;;;;13.55;9.40;;;;;;;-2.20;67.09;94818.84;4921266;29;20051;-89
2021/01/31 05:16:16;;;;;;;15.38;9.57;;;;;;;-2.26;66.97;94823.16;4921194;29;20027;-89
2021/01/31 05:18:47;;;;;;;16.10;9.23;;;;;;;-2.54;66.07;94792.56;4920777;29;20039;-89
2021/01/31 05:21:18;;;;;;;14.55;8.90;;;;;;;-2.42;65.88;94813.97;4921074;29;20051;-89
2021/01/31 05:23:51;;;;;;;15.77;9.55;;;;;;;-2.67;65.22;94779.84;4921032;29;20032;-89
2021/01/31 05:26:18;;;;;;;15.98;9.40;;;;;;;-2.79;65.04;94772.50;4921021;29;20036;-89
2021/01/31 05:28:50;;;;;;;14.63;9.95;;;;;;;-2.35;64.75;94844.22;4920989;29;20120;-89
2021/01/31 05:31:17;;;;;;;15.65;9.65;;;;;;;-2.83;66.06;94776.38;4921003;29;20024;-89
2021/01/31 05:33:50;;;;;;;14.73;9.18;;;;;;;-2.30;65.84;94843.75;4922970;29;20401;-89
2021/01/31 05:36:18;;;;;;;17.98;10.43;;;;;;;-2.52;66.46;94822.88;4956155;28;20024;-90
2021/01/31 05:38:46;;;;;;;16.75;10.00;;;;;;;-2.23;67.05;94851.63;4939769;29;20024;-89
2021/01/31 05:41:27;;;;;;;14.93;9.77;;;;;;;-2.32;64.38;94841.50;4939719;29;20035;-89
2021/01/31 05:43:56;;;;;;;;;;;;;;;-2.34;64.20;94849.16;4939878;29;20047;-89
2021/01/31 05:46:32;;;;;;;15.07;9.10;;;;;;;-2.64;65.43;94810.97;4939731;29;19911;-88
2021/01/31 05:48:57;;;;;;;10.38;7.40;;;;;;;-2.50;63.72;94836.53;4939739;29;20028;-89
2021/01/31 05:51:33;;;;;;;13.27;8.30;;;;;;;-2.79;64.78;94790.38;4939767;29;20419;-89
2021/01/31 05:54:17;;;;;;;14.88;7.95;;;;;;;-2.20;65.12;94854.19;4955667;28;20297;-88
2021/01/31 05:56:44;;;;;;;12.45;8.07;;;;;;;-2.46;65.08;94815.94;4939571;29;20031;-88
2021/01/31 05:59:11;;;;;;;13.82;8.32;;;;;;;-2.72;61.97;94811.50;4939245;29;20368;-88
2021/01/31 06:02:19;;;;;;;14.98;9.00;;;;;;;-2.41;64.25;94867.91;4939463;29;20090;-89
2021/01/31 06:04:44;;;;;;;15.65;8.88;;;;;;;-2.67;64.36;94829.63;4885095;29;20041;-89
2021/01/31 06:07:12;;;;;;;12.02;7.80;;;;;;;-2.15;66.30;94911.50;4933329;29;20057;-89
2021/01/31 06:09:52;;;;;;;12.52;7.70;;;;;;;-2.59;64.19;94849.63;4939470;28;20027;-89
2021/01/31 06:12:20;;;;;;;14.48;7.85;;;;;;;-2.28;60.11;94903.38;4939466;29;20126;-88
2021/01/31 06:14:59;;;;;;;14.05;7.90;;;;;;;-2.31;65.18;94906.09;4923951;29;20024;-90
2021/01/31 06:17:30;;;;;;;14.18;8.20;;;;;;;-2.34;65.94;94904.25;4923090;29;20082;-90
2021/01/31 06:20:07;;;;;;;13.25;8.80;;;;;;;-2.39;65.41;94906.25;4940083;29;20027;-90
2021/01/31 06:22:38;;;;;;;14.27;8.48;;;;;;;-2.44;65.85;94911.28;4939393;29;20032;-88
2021/01/31 06:25:04;;;;;;;17.02;8.48;;;;;;;-2.98;65.46;94840.44;4921832;29;20119;-89
2021/01/31 06:27:32;;;;;;;12.93;8.27;;;;;;;-2.43;65.95;94918.09;4920151;29;20032;-89
2021/01/31 06:30:13;;;;;;;15.05;9.20;;;;;;;-2.41;65.09;94923.75;4935867;29;20028;-90
2021/01/31 06:32:39;;;;;;;14.30;8.75;;;;;;;-2.85;66.10;94861.84;4938723;29;20420;-89
2021/01/31 06:35:08;;;;;;;14.65;9.00;;;;;;;-2.59;66.19;94918.00;4928055;29;20028;-89
2021/01/31 06:37:52;;;;;;;13.48;8.82;;;;;;;-2.56;65.91;94917.91;4938975;29;20097;-89
2021/01/31 06:40:30;;;;;;;15.63;10.30;;;;;;;-2.44;66.82;94935.22;4927451;29;20032;-90
2021/01/31 06:43:16;;;;;;;18.92;10.20;;;;;;;-2.35;67.18;94932.75;4927516;29;20181;-89
2021/01/31 06:45:51;;;;;;;16.63;9.43;;;;;;;-2.30;66.63;94936.84;4919895;29;20029;-90
2021/01/31 06:48:35;;;;;;;17.67;10.60;;;;;;;-2.36;66.04;94941.91;4919907;29;20042;-89
2021/01/31 06:51:29;;;;;;;20.52;13.10;;;;;;;-2.56;64.88;94941.84;4920562;29;20395;-90
2021/01/31 06:54:12;;;;;;;21.17;13.18;;;;;;;-2.41;65.78;94951.09;4938652;29;20075;-90
2021/01/31 06:57:12;;;;;;;21.90;13.15;;;;;;;-2.42;65.47;94949.59;4938575;29;20031;-90
2021/01/31 06:59:56;;;;;;;21.67;13.98;;;;;;;-2.48;66.11;94950.47;4935543;29;20035;-89
2021/01/31 07:02:36;;;;;;;21.83;13.05;;;;;;;-2.50;67.03;94950.88;4919602;29;20035;-89
2021/01/31 07:05:59;;;;;;;21.25;12.93;;;;;;;-2.51;68.25;94946.72;4919593;29;20029;-90
2021/01/31 07:08:43;;;;;;;24.15;14.57;;;;;;;-2.56;67.66;94951.75;4884165;29;20042;-88
2021/01/31 07:11:24;;;;;;;21.83;13.07;;;;;;;-2.53;67.48;94951.69;4899900;29;20040;-90
2021/01/31 07:14:11;;;;;;;20.88;13.20;;;;;;;-2.35;66.74;94954.03;4927717;29;20050;-89
2021/01/31 07:16:57;;;;;;;19.70;11.35;;;;;;;-2.60;66.16;94908.53;4935701;29;20024;-89
2021/01/31 07:19:30;;;;;;;17.50;11.05;;;;;;;-2.50;66.97;94932.28;4935521;29;20117;-90
2021/01/31 07:22:17;;;;;;;14.15;8.73;;;;;;;-2.65;65.58;94904.44;4919640;29;20020;-90
2021/01/31 07:25:09;;;;;;;12.10;8.07;;;;;;;-2.39;64.26;94956.78;4935324;29;20118;-90
2021/01/31 07:27:40;;;;;;;13.95;8.93;;;;;;;-2.40;65.99;94955.28;4917393;29;20032;-90
2021/01/31 07:30:19;;;;;;;14.90;9.13;;;;;;;-2.42;66.08;94949.59;4919451;29;20033;-91
2021/01/31 07:33:07;;;;;;;14.48;9.07;;;;;;;-2.38;65.42;94960.94;4919611;29;20028;-92
2021/01/31 07:35:57;;;;;;;14.98;9.27;;;;;;;-2.44;65.65;94951.91;4920470;29;20039;-90
2021/01/31 07:38:40;;;;;;;24.20;12.38;;;;;;;-2.94;63.86;94880.97;4919428;29;20028;-92
2021/01/31 07:41:08;;;;;;;22.77;11.65;;;;;;;-2.45;63.52;94944.34;4919428;29;20162;-90
2021/01/31 07:43:36;;;;;;;23.85;13.52;;;;;;;-2.65;63.51;94933.66;4923381;29;20332;-92
2021/01/31 07:46:08;;;;;;;22.73;12.05;;;;;;;-3.09;64.52;94878.94;4926820;29;20111;-91
2021/01/31 07:48:50;;;;;;;25.48;14.45;;;;;;;-2.57;63.73;94947.59;4923113;29;20484;-90
2021/01/31 07:51:40;;;;;;;30.15;15.52;;;;;;;-3.06;63.49;94870.16;4922826;29;20028;-88
2021/01/31 07:54:25;;;;;;;28.73;16.05;;;;;;;-2.61;63.47;94941.56;4941161;29;20023;-90
2021/01/31 07:56:54;;;;;;;28.20;14.98;;;;;;;-2.86;63.99;94908.19;4943783;29;20034;-89
2021/01/31 07:59:20;;;;;;;23.95;14.18;;;;;;;-2.44;65.59;94953.84;4938454;29;20038;-93
2021/01/31 08:01:45;;;;;;;37.65;19.70;;;;;;;-2.37;66.29;94945.72;4922492;29;20031;-89
2021/01/31 08:04:18;;;;;;;29.70;14.25;;;;;;;-2.09;66.94;94949.03;4927971;29;20031;-90
2021/01/31 08:06:56;;;;;;;18.95;10.43;;;;;;;-2.46;65.19;94886.97;4941337;29;20036;-88
2021/01/31 08:09:28;;;;;;;20.50;12.32;;;;;;;-2.08;65.05;94950.53;4941260;29;20032;-88
2021/01/31 08:12:05;;;;;;;16.95;10.35;;;;;;;-2.08;63.96;94929.22;4944419;29;20424;-89
2021/01/31 08:15:10;;;;;;;17.75;10.68;;;;;;;-1.88;65.13;94960.00;4951488;29;20372;-89
2021/01/31 08:17:42;;;;;;;15.70;9.82;;;;;;;-1.81;65.32;94953.03;4942802;29;20023;-90
2021/01/31 08:20:17;;;;;;;24.02;12.13;;;;;;;-1.76;65.70;94963.22;4929016;29;20036;-89
2021/01/31 08:22:44;;;;;;;20.73;12.05;;;;;;;-1.67;64.56;94966.84;4926982;29;20015;-89
2021/01/31 08:25:10;;;;;;;18.23;10.70;;;;;;;-1.52;62.92;94966.56;4957055;29;20030;-89
2021/01/31 08:27:41;;;;;;;15.73;9.32;;;;;;;-1.45;61.96;94974.41;4941201;29;20036;-88
2021/01/31 08:30:22;;;;;;;15.65;10.00;;;;;;;-1.38;61.59;94959.03;4921938;29;20024;-89
2021/01/31 08:33:03;;;;;;;16.92;10.10;;;;;;;-1.32;64.02;94964.63;4944271;29;20038;-91
2021/01/31 08:35:41;;;;;;;20.40;9.35;;;;;;;-1.27;61.93;94961.47;4947120;29;20027;-89
2021/01/31 08:38:25;;;;;;;22.45;9.35;;;;;;;-1.26;61.27;94962.97;4929698;29;20035;-90
2021/01/31 08:41:05;;;;;;;18.23;9.63;;;;;;;-1.22;62.74;94960.22;4953426;28;20054;-92
2021/01/31 08:43:44;;;;;;;15.95;9.00;;;;;;;-1.17;62.71;94960.50;4955110;29;20051;-91
2021/01/31 08:46:13;;;;;;;17.13;9.73;;;;;;;-1.21;61.77;94967.06;4952347;29;20053;-90
2021/01/31 08:48:38;;;;;;;17.23;10.32;;;;;;;-1.63;63.39;94902.88;4938408;29;20038;-92
2021/01/31 08:51:15;;;;;;;20.17;11.02;;;;;;;-1.06;62.39;94963.66;4947695;29;20019;-92
2021/01/31 08:53:40;;;;;;;17.05;9.65;;;;;;;-0.57;67.72;94974.34;4947484;28;20035;-90
2021/01/31 08:56:29;;;;;;;17.90;10.75;;;;;;;-0.71;60.38;94933.91;4957456;28;20368;-92
2021/01/31 09:02:25;;;;;;;24.02;11.02;;;;;;;-1.39;60.39;94906.88;4944532;29;20114;-91
2021/01/31 09:04:59;;;;;;;22.08;11.43;;;;;;;-0.92;61.20;94943.91;4949911;29;20027;-92
2021/01/31 09:07:31;;;;;;;20.52;12.32;;;;;;;-0.79;61.51;94976.00;4942253;28;20028;-91
2021/01/31 09:10:20;;;;;;;24.48;12.57;;;;;;;-1.08;61.50;94909.25;4952707;29;20297;-89
2021/01/31 09:12:46;;;;;;;20.17;12.25;;;;;;;-0.74;61.93;94972.84;4941663;29;20037;-91
2021/01/31 09:15:22;;;;;;;20.13;11.93;;;;;;;-1.01;60.64;94927.78;4943155;29;20063;-95
2021/01/31 09:17:47;;;;;;;18.48;11.02;;;;;;;-0.65;60.65;94965.00;4942012;29;20479;-93
2021/01/31 09:20:27;;;;;;;17.65;10.60;;;;;;;-0.55;59.10;94969.31;4944045;29;20023;-94
2021/01/31 09:22:57;;;;;;;19.75;11.63;;;;;;;-0.57;59.55;94974.34;4944592;29;20088;-94
2021/01/31 09:25:24;;;;;;;19.45;11.63;;;;;;;-0.96;59.20;94937.16;4946359;29;20024;-94
2021/01/31 09:28:29;;;;;;;17.60;11.38;;;;;;;-0.50;59.42;94981.41;4944354;29;20023;-95
2021/01/31 09:30:58;;;;;;;18.80;12.10;;;;;;;-0.70;58.15;94986.84;4937264;29;20036;-92
2021/01/31 09:33:40;;;;;;;16.48;11.10;;;;;;;-1.24;59.04;94914.56;4941962;29;20035;-92
2021/01/31 09:36:18;;;;;;;20.48;12.13;;;;;;;-0.82;60.39;94980.25;4931788;29;20050;-93
2021/01/31 09:38:46;;;;;;;23.90;13.40;;;;;;;-1.44;58.42;94895.97;4946643;29;20122;-94
2021/01/31 09:41:12;;;;;;;22.73;13.02;;;;;;;-1.24;61.28;94888.69;4950850;28;20035;-91
2021/01/31 09:43:38;;;;;;;22.58;13.27;;;;;;;-1.37;59.14;94896.59;4943269;29;20055;-93
2021/01/31 09:46:11;;;;;;;27.15;14.70;;;;;;;-0.65;60.78;94985.59;4949792;28;20031;-95
2021/01/31 09:48:37;;;;;;;23.15;14.55;;;;;;;-1.21;59.59;94908.44;4949385;29;20074;-95
2021/01/31 09:51:06;;;;;;;22.08;14.85;;;;;;;-0.98;59.69;94950.91;4941336;28;20027;-95
2021/01/31 09:53:36;;;;;;;31.35;15.98;;;;;;;-0.74;59.19;94988.84;4929768;29;20111;-92
2021/01/31 09:56:23;;;;;;;26.47;15.73;;;;;;;-1.14;62.09;94924.25;4957635;29;20028;-95
2021/01/31 10:02:22;;;;;;;25.33;15.90;;;;;;;-1.01;60.56;94938.44;4936564;29;20462;-94
2021/01/31 10:05:03;;;;;;;25.48;15.80;;;;;;;-0.96;61.52;94940.59;4940506;29;20027;-93
2021/01/31 10:07:34;;;;;;;21.88;15.20;;;;;;;-1.21;59.24;94924.41;4929852;29;20435;-91
2021/01/31 10:10:24;;;;;;;26.02;16.13;;;;;;;-0.69;61.85;94987.56;4938264;29;20025;-93
2021/01/31 10:12:51;;;;;;;27.05;14.98;;;;;;;-1.15;60.10;94917.44;4926247;29;20028;-92
2021/01/31 10:15:40;;;;;;;23.27;14.60;;;;;;;-0.62;58.88;94987.44;4945032;29;20431;-91
2021/01/31 10:18:13;;;;;;;23.75;13.80;;;;;;;-1.13;58.27;94925.75;4936602;29;20036;-93
2021/01/31 10:20:43;;;;;;;23.65;13.55;;;;;;;-0.96;59.62;94972.59;4939515;29;20428;-94
2021/01/31 10:23:18;;;;;;;22.08;13.15;;;;;;;-1.38;59.02;94924.41;4939344;29;20119;-93
2021/01/31 10:25:59;;;;;;;19.75;12.95;;;;;;;-1.02;61.60;94941.50;4939212;29;20024;-91
2021/01/31 10:28:31;;;;;;;22.65;13.43;;;;;;;-1.04;61.64;94930.50;4938699;28;20042;-92
2021/01/31 10:30:58;;;;;;;21.50;13.40;;;;;;;-0.64;61.45;94982.53;4943704;29;20024;-94
2021/01/31 10:33:44;;;;;;;27.60;13.40;;;;;;;-0.48;58.89;94981.78;4942251;29;20118;-95
2021/01/31 10:36:22;;;;;;;23.85;14.23;;;;;;;-0.36;59.39;94986.41;4940556;29;20027;-92
2021/01/31 10:38:48;;;;;;;24.02;14.82;;;;;;;-0.83;58.10;94925.44;4956744;28;20032;-94
2021/01/31 10:41:16;;;;;;;23.35;14.30;;;;;;;-0.51;58.62;94971.19;4940694;29;20034;-93
2021/01/31 10:43:42;;;;;;;23.45;14.85;;;;;;;-0.98;60.51;94883.53;4951343;29;20188;-93
2021/01/31 10:46:07;;;;;;;23.35;14.82;;;;;;;-0.55;57.64;94931.22;4953551;29;20142;-95
2021/01/31 10:48:34;;;;;;;27.00;14.70;;;;;;;-0.74;59.42;94906.19;4938932;29;20039;-94
2021/01/31 10:51:03;;;;;;;24.25;13.80;;;;;;;-1.00;56.80;94880.53;4938967;29;20024;-93
2021/01/31 10:53:30;;;;;;;23.98;13.68;;;;;;;-0.97;54.07;94903.69;4938734;29;20048;-94
2021/01/31 10:55:56;;;;;;;19.52;12.98;;;;;;;-0.99;54.76;94914.75;4948824;29;20028;-93
2021/01/31 10:58:47;;;;;;;25.98;14.85;;;;;;;-0.52;56.16;94975.75;4933725;29;20037;-94
2021/01/31 11:01:13;;;;;;;23.58;14.52;;;;;;;-0.61;56.14;94954.25;4956841;29;20024;-91
2021/01/31 11:03:38;;;;;;;21.42;14.32;;;;;;;-0.78;58.32;94912.75;4938604;29;20324;-90
2021/01/31 11:06:04;;;;;;;24.65;14.70;;;;;;;-0.38;59.25;94977.31;4932209;29;20036;-93
2021/01/31 11:08:30;;;;;;;25.00;14.45;;;;;;;-0.33;57.52;94976.81;4926698;29;20357;-94
2021/01/31 11:10:55;;;;;;;21.48;13.65;;;;;;;-0.70;56.53;94930.06;4955941;28;20427;-91
2021/01/31 11:13:21;;;;;;;22.10;13.30;;;;;;;-0.31;60.02;94977.91;4939690;28;20434;-94
2021/01/31 11:15:47;;;;;;;22.15;13.32;;;;;;;-0.64;58.47;94915.84;4943217;29;20039;-94
2021/01/31 11:18:12;;;;;;;20.27;13.75;;;;;;;-0.70;56.76;94930.06;4960816;28;20023;-94
2021/01/31 11:20:38;;;;;;;21.13;12.93;;;;;;;-0.70;56.38;94925.50;4980430;28;20439;-95
2021/01/31 11:23:03;;;;;;;20.27;12.52;;;;;;;-1.00;56.75;94880.53;4958852;29;20023;-96
2021/01/31 11:25:29;;;;;;;18.58;11.50;;;;;;;-0.67;54.49;94935.34;4948760;29;20034;-96
2021/01/31 11:27:54;;;;;;;18.80;12.73;;;;;;;-1.21;55.74;94881.78;4950456;29;20063;-95
2021/01/31 11:30:20;;;;;;;19.98;12.38;;;;;;;-1.13;55.34;94891.09;4947136;29;20031;-95
2021/01/31 11:32:46;;;;;;;18.17;11.63;;;;;;;-0.88;54.71;94920.59;4947548;29;20030;-94
2021/01/31 11:35:12;;;;;;;18.48;11.02;;;;;;;-0.88;54.83;94911.84;4952652;29;20020;-95
2021/01/31 11:37:37;;;;;;;16.73;11.15;;;;;;;-0.77;55.81;94947.00;4946793;29;20035;-96
2021/01/31 11:40:26;;;;;;;17.23;11.10;;;;;;;-0.83;55.42;94943.34;4948688;29;20061;-96
2021/01/31 11:42:53;;;;;;;17.60;11.00;;;;;;;-0.89;55.10;94919.09;4936531;29;20052;-96
2021/01/31 11:45:22;;;;;;;15.32;10.30;;;;;;;-1.06;57.47;94881.03;4959508;29;20458;-94
2021/01/31 11:47:48;;;;;;;16.52;10.55;;;;;;;-0.86;58.87;94886.25;4953957;29;20023;-92
2021/01/31 11:50:15;;;;;;;19.52;11.57;;;;;;;-0.37;57.49;94947.56;4952994;29;20031;-92
2021/01/31 11:52:40;;;;;;;17.17;11.38;;;;;;;-1.13;55.40;94859.88;4947069;29;20404;-93
2021/01/31 11:55:07;;;;;;;21.27;11.50;;;;;;;-1.00;56.28;94880.53;4943245;29;20031;-94
2021/01/31 11:57:35;;;;;;;15.25;10.35;;;;;;;-0.80;56.85;94865.94;4940716;29;20074;-95